Portada
METAR-TAF:

METAR-TAF

Aeropuertos :

Aeropuerto Internacional de Mehrabad

Teherán, Irán

latitud: 35-41N, longitud: 051-21E, altitud: 1204 m

Observación

El informe se hizo hace 7 horas y 15 minutos, a las 05:00 UTC
Viento 6 kt del sureste
Temperatura 26°C
Humedad 34%
Presión 1018 hPa
Visibilidad 10 km o más
Escasas nubes a una altura de 4000 ft

METAR: OIII 210500Z 14006KT 9999 FEW040 26/09 Q1017 A3006

Hora: 16:45 (12:15 UTC)

Pronóstico

El informe se hizo hace 13 horas y 15 minutos, a las 23:00 UTC
Pronóstico válido del 21 a las 00 UTC al 22 a las 06 UTC
Viento 8 kt del este
Visibilidad: 8000 m
Evolucionando progresivamente
del 21 a las 08 UTC al 21 a las 10 UTC
Viento 8 kt del sur

TAF: OIII 202300Z 2100/2206 09004MPS 8000 NSC BECMG 2108/2110 18004MPS

Observaciones y pronósticos meteorológicos de más de 4000 aeropuertos (mensajes METAR y TAF).

Los puntos amarillos y rojos representan las estaciones disponibles.

Ponga el ratón en el punto deseado para ver el nombre de la estación.

Haga clic para ver las observaciones y los pronósticos meteorológicos.

Para cambiar el mapa : haga clic en los botones verdes con una cruz de color negro para hacer un zoom, en el botón verde con un guión para alejar o en las flechas verdes para mapas adyacentes.


METAR-TAF: